sensor_id;sensor_type;location;lat;lon;timestamp;temperature;humidity
43671;DHT22;29267;50.906;7.248;2022-07-23T00:00:49;17.60;99.90
43671;DHT22;29267;50.906;7.248;2022-07-23T00:03:15;17.50;99.90
43671;DHT22;29267;50.906;7.248;2022-07-23T00:05:41;17.50;99.90
43671;DHT22;29267;50.906;7.248;2022-07-23T00:08:08;17.40;99.90
43671;DHT22;29267;50.906;7.248;2022-07-23T00:10:35;17.50;99.90
43671;DHT22;29267;50.906;7.248;2022-07-23T00:13:00;17.50;99.90
43671;DHT22;29267;50.906;7.248;2022-07-23T00:15:26;17.40;99.90
43671;DHT22;29267;50.906;7.248;2022-07-23T00:17:52;17.40;99.90
43671;DHT22;29267;50.906;7.248;2022-07-23T00:20:17;17.40;99.90
43671;DHT22;29267;50.906;7.248;2022-07-23T00:22:50;17.40;99.90
43671;DHT22;29267;50.906;7.248;2022-07-23T00:25:16;17.30;99.90
43671;DHT22;29267;50.906;7.248;2022-07-23T00:27:42;17.30;99.90
43671;DHT22;29267;50.906;7.248;2022-07-23T00:30:08;17.20;99.90
43671;DHT22;29267;50.906;7.248;2022-07-23T00:32:48;17.20;99.90
43671;DHT22;29267;50.906;7.248;2022-07-23T00:35:14;17.20;99.90
43671;DHT22;29267;50.906;7.248;2022-07-23T00:37:40;17.20;99.90
43671;DHT22;29267;50.906;7.248;2022-07-23T00:40:06;17.20;99.90
43671;DHT22;29267;50.906;7.248;2022-07-23T00:42:32;17.10;99.90
43671;DHT22;29267;50.906;7.248;2022-07-23T00:44:58;17.10;99.90
43671;DHT22;29267;50.906;7.248;2022-07-23T00:47:23;17.10;99.90
43671;DHT22;29267;50.906;7.248;2022-07-23T00:49:49;17.10;99.90
43671;DHT22;29267;50.906;7.248;2022-07-23T00:52:15;17.20;99.90
43671;DHT22;29267;50.906;7.248;2022-07-23T00:54:41;17.20;99.90
43671;DHT22;29267;50.906;7.248;2022-07-23T00:57:07;17.10;99.90
43671;DHT22;29267;50.906;7.248;2022-07-23T00:59:32;17.10;99.90
43671;DHT22;29267;50.906;7.248;2022-07-23T01:01:58;17.10;99.90
43671;DHT22;29267;50.906;7.248;2022-07-23T01:04:23;17.10;99.90
43671;DHT22;29267;50.906;7.248;2022-07-23T01:06:49;17.10;99.90
43671;DHT22;29267;50.906;7.248;2022-07-23T01:09:15;17.10;99.90
43671;DHT22;29267;50.906;7.248;2022-07-23T01:11:41;17.10;99.90
43671;DHT22;29267;50.906;7.248;2022-07-23T01:14:15;17.20;99.90
43671;DHT22;29267;50.906;7.248;2022-07-23T01:16:42;17.20;99.90
43671;DHT22;29267;50.906;7.248;2022-07-23T01:19:08;17.10;99.90
43671;DHT22;29267;50.906;7.248;2022-07-23T01:22:01;17.20;99.90
43671;DHT22;29267;50.906;7.248;2022-07-23T01:24:27;17.10;99.90
43671;DHT22;29267;50.906;7.248;2022-07-23T01:26:53;17.10;99.90
43671;DHT22;29267;50.906;7.248;2022-07-23T01:29:18;17.10;99.90
43671;DHT22;29267;50.906;7.248;2022-07-23T01:31:46;17.10;99.90
43671;DHT22;29267;50.906;7.248;2022-07-23T01:34:12;17.10;99.90
43671;DHT22;29267;50.906;7.248;2022-07-23T01:36:38;17.20;99.90
43671;DHT22;29267;50.906;7.248;2022-07-23T01:39:04;17.20;99.90
43671;DHT22;29267;50.906;7.248;2022-07-23T01:41:30;17.20;99.90
43671;DHT22;29267;50.906;7.248;2022-07-23T01:43:56;17.20;99.90
43671;DHT22;29267;50.906;7.248;2022-07-23T01:46:22;17.20;99.90
43671;DHT22;29267;50.906;7.248;2022-07-23T01:48:48;17.20;99.90
43671;DHT22;29267;50.906;7.248;2022-07-23T01:51:13;17.20;99.90
43671;DHT22;29267;50.906;7.248;2022-07-23T01:53:39;17.20;99.90
43671;DHT22;29267;50.906;7.248;2022-07-23T01:56:05;17.20;99.90
43671;DHT22;29267;50.906;7.248;2022-07-23T01:58:31;17.20;99.90
43671;DHT22;29267;50.906;7.248;2022-07-23T02:00:56;17.10;99.90
43671;DHT22;29267;50.906;7.248;2022-07-23T02:03:22;17.10;99.90
43671;DHT22;29267;50.906;7.248;2022-07-23T02:05:48;17.10;99.90
43671;DHT22;29267;50.906;7.248;2022-07-23T02:08:14;17.10;99.90
43671;DHT22;29267;50.906;7.248;2022-07-23T02:10:40;17.10;99.90
43671;DHT22;29267;50.906;7.248;2022-07-23T02:13:06;17.10;99.90
43671;DHT22;29267;50.906;7.248;2022-07-23T02:15:32;17.10;99.90
43671;DHT22;29267;50.906;7.248;2022-07-23T02:17:58;17.00;99.90
43671;DHT22;29267;50.906;7.248;2022-07-23T02:20:24;17.00;99.90
43671;DHT22;29267;50.906;7.248;2022-07-23T02:22:49;17.00;99.90
43671;DHT22;29267;50.906;7.248;2022-07-23T02:25:15;17.00;99.90
43671;DHT22;29267;50.906;7.248;2022-07-23T02:27:41;17.00;99.90
43671;DHT22;29267;50.906;7.248;2022-07-23T02:30:07;17.00;99.90
43671;DHT22;29267;50.906;7.248;2022-07-23T02:32:33;17.00;99.90
43671;DHT22;29267;50.906;7.248;2022-07-23T02:34:59;17.00;99.90
43671;DHT22;29267;50.906;7.248;2022-07-23T02:37:24;16.90;99.90
43671;DHT22;29267;50.906;7.248;2022-07-23T02:39:50;16.90;99.90
43671;DHT22;29267;50.906;7.248;2022-07-23T02:42:16;16.80;99.90
43671;DHT22;29267;50.906;7.248;2022-07-23T02:44:41;16.80;99.90
43671;DHT22;29267;50.906;7.248;2022-07-23T02:47:07;16.70;99.90
43671;DHT22;29267;50.906;7.248;2022-07-23T02:49:33;16.70;99.90
43671;DHT22;29267;50.906;7.248;2022-07-23T02:51:58;16.70;99.90
43671;DHT22;29267;50.906;7.248;2022-07-23T02:54:24;16.60;99.90
43671;DHT22;29267;50.906;7.248;2022-07-23T02:56:49;16.60;99.90
43671;DHT22;29267;50.906;7.248;2022-07-23T02:59:18;16.60;99.90
43671;DHT22;29267;50.906;7.248;2022-07-23T03:01:44;16.70;99.90
43671;DHT22;29267;50.906;7.248;2022-07-23T03:04:10;16.60;99.90
43671;DHT22;29267;50.906;7.248;2022-07-23T03:06:36;16.60;99.90
43671;DHT22;29267;50.906;7.248;2022-07-23T03:09:02;16.60;99.90
43671;DHT22;29267;50.906;7.248;2022-07-23T03:11:28;16.60;99.90
43671;DHT22;29267;50.906;7.248;2022-07-23T03:13:54;16.50;99.90
43671;DHT22;29267;50.906;7.248;2022-07-23T03:16:19;16.50;99.90
43671;DHT22;29267;50.906;7.248;2022-07-23T03:18:45;16.50;99.90
43671;DHT22;29267;50.906;7.248;2022-07-23T03:21:10;16.50;99.90
43671;DHT22;29267;50.906;7.248;2022-07-23T03:23:36;16.50;99.90
43671;DHT22;29267;50.906;7.248;2022-07-23T03:26:03;16.50;99.90
43671;DHT22;29267;50.906;7.248;2022-07-23T03:28:28;16.50;99.90
43671;DHT22;29267;50.906;7.248;2022-07-23T03:30:54;16.50;99.90
43671;DHT22;29267;50.906;7.248;2022-07-23T03:33:20;16.50;99.90
43671;DHT22;29267;50.906;7.248;2022-07-23T03:35:47;16.40;99.90
43671;DHT22;29267;50.906;7.248;2022-07-23T03:38:13;16.40;99.90
43671;DHT22;29267;50.906;7.248;2022-07-23T03:40:39;16.40;99.90
43671;DHT22;29267;50.906;7.248;2022-07-23T03:43:05;16.40;99.90
43671;DHT22;29267;50.906;7.248;2022-07-23T03:45:31;16.40;99.90
43671;DHT22;29267;50.906;7.248;2022-07-23T03:47:57;16.30;99.90
43671;DHT22;29267;50.906;7.248;2022-07-23T03:50:23;16.30;99.90
43671;DHT22;29267;50.906;7.248;2022-07-23T03:52:49;16.20;99.90
43671;DHT22;29267;50.906;7.248;2022-07-23T03:55:15;16.20;99.90
43671;DHT22;29267;50.906;7.248;2022-07-23T03:57:41;16.20;99.90
43671;DHT22;29267;50.906;7.248;2022-07-23T04:00:08;16.10;99.90
43671;DHT22;29267;50.906;7.248;2022-07-23T04:02:38;16.10;99.90
43671;DHT22;29267;50.906;7.248;2022-07-23T04:05:04;16.00;99.90
43671;DHT22;29267;50.906;7.248;2022-07-23T04:07:30;16.00;99.90
43671;DHT22;29267;50.906;7.248;2022-07-23T04:09:56;16.00;99.90
43671;DHT22;29267;50.906;7.248;2022-07-23T04:12:22;16.00;99.90
43671;DHT22;29267;50.906;7.248;2022-07-23T04:14:48;16.00;99.90
43671;DHT22;29267;50.906;7.248;2022-07-23T04:17:13;15.90;99.90
43671;DHT22;29267;50.906;7.248;2022-07-23T04:19:39;16.00;99.90
43671;DHT22;29267;50.906;7.248;2022-07-23T04:22:07;15.90;99.90
43671;DHT22;29267;50.906;7.248;2022-07-23T04:24:33;15.90;99.90
43671;DHT22;29267;50.906;7.248;2022-07-23T04:26:58;15.90;99.90
43671;DHT22;29267;50.906;7.248;2022-07-23T04:29:24;16.00;99.90
43671;DHT22;29267;50.906;7.248;2022-07-23T04:31:50;16.00;99.90
43671;DHT22;29267;50.906;7.248;2022-07-23T04:34:16;16.10;99.90
43671;DHT22;29267;50.906;7.248;2022-07-23T04:36:42;16.10;99.90
43671;DHT22;29267;50.906;7.248;2022-07-23T04:39:08;16.20;99.90
43671;DHT22;29267;50.906;7.248;2022-07-23T04:41:34;16.40;99.90
43671;DHT22;29267;50.906;7.248;2022-07-23T04:44:00;16.70;99.90
43671;DHT22;29267;50.906;7.248;2022-07-23T04:46:26;17.20;99.90
43671;DHT22;29267;50.906;7.248;2022-07-23T04:48:53;17.90;99.90
43671;DHT22;29267;50.906;7.248;2022-07-23T04:51:18;18.60;99.90
43671;DHT22;29267;50.906;7.248;2022-07-23T04:53:44;19.20;99.90
43671;DHT22;29267;50.906;7.248;2022-07-23T04:56:10;19.80;99.90
43671;DHT22;29267;50.906;7.248;2022-07-23T04:58:35;20.30;99.90
43671;DHT22;29267;50.906;7.248;2022-07-23T05:01:01;21.00;99.90
43671;DHT22;29267;50.906;7.248;2022-07-23T05:03:27;21.30;99.90
43671;DHT22;29267;50.906;7.248;2022-07-23T05:05:53;21.70;99.90
43671;DHT22;29267;50.906;7.248;2022-07-23T05:08:19;22.00;99.90
43671;DHT22;29267;50.906;7.248;2022-07-23T05:10:44;22.40;99.90
43671;DHT22;29267;50.906;7.248;2022-07-23T05:13:10;22.70;99.90
43671;DHT22;29267;50.906;7.248;2022-07-23T05:15:35;23.00;99.90
43671;DHT22;29267;50.906;7.248;2022-07-23T05:18:01;23.20;99.90
43671;DHT22;29267;50.906;7.248;2022-07-23T05:20:27;23.30;99.90
43671;DHT22;29267;50.906;7.248;2022-07-23T05:22:52;23.70;99.90
43671;DHT22;29267;50.906;7.248;2022-07-23T05:25:18;23.90;99.90
43671;DHT22;29267;50.906;7.248;2022-07-23T05:27:43;23.90;99.00
43671;DHT22;29267;50.906;7.248;2022-07-23T05:30:10;24.40;99.00
43671;DHT22;29267;50.906;7.248;2022-07-23T05:32:35;24.30;98.60
43671;DHT22;29267;50.906;7.248;2022-07-23T05:35:03;24.80;97.80
43671;DHT22;29267;50.906;7.248;2022-07-23T05:37:29;25.10;97.60
43671;DHT22;29267;50.906;7.248;2022-07-23T05:39:54;25.20;96.30
43671;DHT22;29267;50.906;7.248;2022-07-23T05:42:20;25.70;96.60
43671;DHT22;29267;50.906;7.248;2022-07-23T05:44:45;25.70;95.80
43671;DHT22;29267;50.906;7.248;2022-07-23T05:47:11;27.10;93.80
43671;DHT22;29267;50.906;7.248;2022-07-23T05:49:38;26.80;93.30
43671;DHT22;29267;50.906;7.248;2022-07-23T05:52:06;27.40;92.10
43671;DHT22;29267;50.906;7.248;2022-07-23T05:54:34;26.70;92.60
43671;DHT22;29267;50.906;7.248;2022-07-23T05:57:01;26.30;92.40
43671;DHT22;29267;50.906;7.248;2022-07-23T05:59:26;26.00;93.10
43671;DHT22;29267;50.906;7.248;2022-07-23T06:01:52;26.50;93.10
43671;DHT22;29267;50.906;7.248;2022-07-23T06:04:17;26.00;93.00
43671;DHT22;29267;50.906;7.248;2022-07-23T06:06:43;25.50;93.40
43671;DHT22;29267;50.906;7.248;2022-07-23T06:09:09;25.70;93.40
43671;DHT22;29267;50.906;7.248;2022-07-23T06:11:36;25.40;94.80
43671;DHT22;29267;50.906;7.248;2022-07-23T06:14:01;25.80;94.20
43671;DHT22;29267;50.906;7.248;2022-07-23T06:16:28;26.50;91.90
43671;DHT22;29267;50.906;7.248;2022-07-23T06:18:53;26.80;91.60
43671;DHT22;29267;50.906;7.248;2022-07-23T06:21:19;26.20;92.00
43671;DHT22;29267;50.906;7.248;2022-07-23T06:23:44;26.90;92.50
43671;DHT22;29267;50.906;7.248;2022-07-23T06:26:10;27.20;90.00
43671;DHT22;29267;50.906;7.248;2022-07-23T06:28:36;27.30;89.20
43671;DHT22;29267;50.906;7.248;2022-07-23T06:31:01;27.70;88.50
43671;DHT22;29267;50.906;7.248;2022-07-23T06:33:27;28.00;88.50
43671;DHT22;29267;50.906;7.248;2022-07-23T06:35:53;27.80;87.80
43671;DHT22;29267;50.906;7.248;2022-07-23T06:38:18;27.10;87.20
43671;DHT22;29267;50.906;7.248;2022-07-23T06:40:44;27.50;88.20
43671;DHT22;29267;50.906;7.248;2022-07-23T06:43:10;27.90;89.60
43671;DHT22;29267;50.906;7.248;2022-07-23T06:45:36;28.30;87.80
43671;DHT22;29267;50.906;7.248;2022-07-23T06:48:02;29.00;87.10
43671;DHT22;29267;50.906;7.248;2022-07-23T06:50:28;29.60;82.30
43671;DHT22;29267;50.906;7.248;2022-07-23T06:52:54;30.00;80.60
43671;DHT22;29267;50.906;7.248;2022-07-23T06:55:19;30.40;75.90
43671;DHT22;29267;50.906;7.248;2022-07-23T06:57:45;30.20;76.80
43671;DHT22;29267;50.906;7.248;2022-07-23T07:00:11;30.00;78.20
43671;DHT22;29267;50.906;7.248;2022-07-23T07:02:37;29.80;74.00
43671;DHT22;29267;50.906;7.248;2022-07-23T07:05:03;29.90;76.10
43671;DHT22;29267;50.906;7.248;2022-07-23T07:07:29;30.80;72.80
43671;DHT22;29267;50.906;7.248;2022-07-23T07:09:54;31.10;70.30
43671;DHT22;29267;50.906;7.248;2022-07-23T07:12:20;31.10;68.90
43671;DHT22;29267;50.906;7.248;2022-07-23T07:14:46;32.00;68.60
43671;DHT22;29267;50.906;7.248;2022-07-23T07:17:12;31.10;68.90
43671;DHT22;29267;50.906;7.248;2022-07-23T07:19:37;31.40;70.80
43671;DHT22;29267;50.906;7.248;2022-07-23T07:22:03;31.60;70.50
43671;DHT22;29267;50.906;7.248;2022-07-23T07:24:29;31.60;67.70
43671;DHT22;29267;50.906;7.248;2022-07-23T07:26:54;32.70;65.50
43671;DHT22;29267;50.906;7.248;2022-07-23T07:29:20;33.00;62.50
43671;DHT22;29267;50.906;7.248;2022-07-23T07:31:46;31.40;64.60
43671;DHT22;29267;50.906;7.248;2022-07-23T07:34:11;31.00;66.00
43671;DHT22;29267;50.906;7.248;2022-07-23T07:36:37;32.00;66.30
43671;DHT22;29267;50.906;7.248;2022-07-23T07:39:04;32.60;64.50
43671;DHT22;29267;50.906;7.248;2022-07-23T07:41:31;31.60;64.20
43671;DHT22;29267;50.906;7.248;2022-07-23T07:43:56;31.80;65.90
43671;DHT22;29267;50.906;7.248;2022-07-23T07:46:22;32.20;64.40
43671;DHT22;29267;50.906;7.248;2022-07-23T07:48:50;32.60;64.20
43671;DHT22;29267;50.906;7.248;2022-07-23T07:51:16;33.00;63.70
43671;DHT22;29267;50.906;7.248;2022-07-23T07:53:41;32.80;62.70
43671;DHT22;29267;50.906;7.248;2022-07-23T07:56:07;31.80;65.00
43671;DHT22;29267;50.906;7.248;2022-07-23T07:58:33;31.90;64.90
43671;DHT22;29267;50.906;7.248;2022-07-23T08:00:58;33.20;62.70
43671;DHT22;29267;50.906;7.248;2022-07-23T08:03:26;32.10;63.30
43671;DHT22;29267;50.906;7.248;2022-07-23T08:05:51;32.20;65.20
43671;DHT22;29267;50.906;7.248;2022-07-23T08:08:18;32.00;65.20
43671;DHT22;29267;50.906;7.248;2022-07-23T08:10:43;32.50;64.80
43671;DHT22;29267;50.906;7.248;2022-07-23T08:13:13;33.00;62.90
43671;DHT22;29267;50.906;7.248;2022-07-23T08:15:40;32.10;61.90
43671;DHT22;29267;50.906;7.248;2022-07-23T08:18:06;32.00;63.60
43671;DHT22;29267;50.906;7.248;2022-07-23T08:20:32;32.00;63.00
43671;DHT22;29267;50.906;7.248;2022-07-23T08:23:05;31.70;63.40
43671;DHT22;29267;50.906;7.248;2022-07-23T08:25:39;30.60;64.90
43671;DHT22;29267;50.906;7.248;2022-07-23T08:28:07;30.80;65.80
43671;DHT22;29267;50.906;7.248;2022-07-23T08:30:33;31.50;63.40
43671;DHT22;29267;50.906;7.248;2022-07-23T08:33:03;31.50;63.80
43671;DHT22;29267;50.906;7.248;2022-07-23T08:35:32;32.10;62.40
43671;DHT22;29267;50.906;7.248;2022-07-23T08:38:00;32.10;62.00
43671;DHT22;29267;50.906;7.248;2022-07-23T08:40:28;32.20;63.00
43671;DHT22;29267;50.906;7.248;2022-07-23T08:42:54;31.60;63.30
43671;DHT22;29267;50.906;7.248;2022-07-23T08:45:22;30.90;66.80
43671;DHT22;29267;50.906;7.248;2022-07-23T08:47:55;31.10;64.90
43671;DHT22;29267;50.906;7.248;2022-07-23T08:50:23;31.60;63.70
43671;DHT22;29267;50.906;7.248;2022-07-23T08:52:50;31.50;62.60
43671;DHT22;29267;50.906;7.248;2022-07-23T08:55:17;31.30;63.00
43671;DHT22;29267;50.906;7.248;2022-07-23T08:57:44;31.90;63.30
43671;DHT22;29267;50.906;7.248;2022-07-23T09:00:10;31.90;60.60
43671;DHT22;29267;50.906;7.248;2022-07-23T09:02:41;31.70;63.30
43671;DHT22;29267;50.906;7.248;2022-07-23T09:05:08;31.60;63.80
43671;DHT22;29267;50.906;7.248;2022-07-23T09:07:33;32.00;62.30
43671;DHT22;29267;50.906;7.248;2022-07-23T09:10:10;31.50;61.80
43671;DHT22;29267;50.906;7.248;2022-07-23T09:12:37;31.60;64.60
43671;DHT22;29267;50.906;7.248;2022-07-23T09:15:07;31.70;63.30
43671;DHT22;29267;50.906;7.248;2022-07-23T09:17:42;32.00;60.30
43671;DHT22;29267;50.906;7.248;2022-07-23T09:20:15;31.70;61.10
43671;DHT22;29267;50.906;7.248;2022-07-23T09:22:47;31.40;61.90
43671;DHT22;29267;50.906;7.248;2022-07-23T09:25:18;31.30;61.00
43671;DHT22;29267;50.906;7.248;2022-07-23T09:27:57;31.10;61.80
43671;DHT22;29267;50.906;7.248;2022-07-23T09:30:26;31.20;63.10
43671;DHT22;29267;50.906;7.248;2022-07-23T09:33:06;31.40;64.60
43671;DHT22;29267;50.906;7.248;2022-07-23T09:38:16;32.00;62.00
43671;DHT22;29267;50.906;7.248;2022-07-23T09:40:43;31.50;61.40
43671;DHT22;29267;50.906;7.248;2022-07-23T09:43:09;31.00;63.10
43671;DHT22;29267;50.906;7.248;2022-07-23T09:45:34;31.00;62.30
43671;DHT22;29267;50.906;7.248;2022-07-23T09:48:17;31.00;63.70
43671;DHT22;29267;50.906;7.248;2022-07-23T09:50:44;30.60;64.80
43671;DHT22;29267;50.906;7.248;2022-07-23T09:53:31;30.50;65.50
43671;DHT22;29267;50.906;7.248;2022-07-23T09:55:58;29.60;65.90
43671;DHT22;29267;50.906;7.248;2022-07-23T09:58:26;30.00;66.50
43671;DHT22;29267;50.906;7.248;2022-07-23T10:00:55;30.10;64.40
43671;DHT22;29267;50.906;7.248;2022-07-23T10:03:21;30.90;63.00
43671;DHT22;29267;50.906;7.248;2022-07-23T10:05:49;30.70;64.40
43671;DHT22;29267;50.906;7.248;2022-07-23T10:08:18;30.60;62.80
43671;DHT22;29267;50.906;7.248;2022-07-23T10:10:45;29.90;64.40
43671;DHT22;29267;50.906;7.248;2022-07-23T10:13:11;29.50;63.80
43671;DHT22;29267;50.906;7.248;2022-07-23T10:15:40;29.20;65.50
43671;DHT22;29267;50.906;7.248;2022-07-23T10:18:05;29.20;66.50
43671;DHT22;29267;50.906;7.248;2022-07-23T10:20:32;29.60;66.20
43671;DHT22;29267;50.906;7.248;2022-07-23T10:26:41;28.50;65.40
43671;DHT22;29267;50.906;7.248;2022-07-23T10:29:05;28.20;65.60
43671;DHT22;29267;50.906;7.248;2022-07-23T10:32:00;27.90;67.10
43671;DHT22;29267;50.906;7.248;2022-07-23T10:37:17;27.90;70.30
43671;DHT22;29267;50.906;7.248;2022-07-23T10:39:45;27.60;69.30
43671;DHT22;29267;50.906;7.248;2022-07-23T10:42:15;27.60;70.30
43671;DHT22;29267;50.906;7.248;2022-07-23T10:44:45;27.40;70.00
43671;DHT22;29267;50.906;7.248;2022-07-23T10:47:21;27.50;71.00
43671;DHT22;29267;50.906;7.248;2022-07-23T10:50:33;27.50;67.90
43671;DHT22;29267;50.906;7.248;2022-07-23T10:53:17;27.60;67.70
43671;DHT22;29267;50.906;7.248;2022-07-23T10:58:10;27.10;67.90
43671;DHT22;29267;50.906;7.248;2022-07-23T11:00:37;27.10;67.40
43671;DHT22;29267;50.906;7.248;2022-07-23T11:03:05;26.90;69.40
43671;DHT22;29267;50.906;7.248;2022-07-23T11:05:44;26.90;69.60
43671;DHT22;29267;50.906;7.248;2022-07-23T11:08:17;26.50;70.80
43671;DHT22;29267;50.906;7.248;2022-07-23T11:16:16;26.00;70.70
43671;DHT22;29267;50.906;7.248;2022-07-23T11:32:08;26.10;72.40
43671;DHT22;29267;50.906;7.248;2022-07-23T11:34:44;25.90;69.90
43671;DHT22;29267;50.906;7.248;2022-07-23T11:37:26;26.10;71.80
43671;DHT22;29267;50.906;7.248;2022-07-23T11:39:55;26.40;71.60
43671;DHT22;29267;50.906;7.248;2022-07-23T11:42:20;26.70;70.30
43671;DHT22;29267;50.906;7.248;2022-07-23T11:44:47;26.70;69.50
43671;DHT22;29267;50.906;7.248;2022-07-23T11:47:13;26.50;69.50
43671;DHT22;29267;50.906;7.248;2022-07-23T11:49:58;26.30;73.50
43671;DHT22;29267;50.906;7.248;2022-07-23T11:52:25;26.30;70.90
43671;DHT22;29267;50.906;7.248;2022-07-23T11:57:18;26.70;68.50
43671;DHT22;29267;50.906;7.248;2022-07-23T11:59:44;26.70;70.10
43671;DHT22;29267;50.906;7.248;2022-07-23T12:02:11;26.70;68.20
43671;DHT22;29267;50.906;7.248;2022-07-23T12:04:47;26.50;68.40
43671;DHT22;29267;50.906;7.248;2022-07-23T12:07:43;26.30;69.50
43671;DHT22;29267;50.906;7.248;2022-07-23T12:10:24;25.90;70.50
43671;DHT22;29267;50.906;7.248;2022-07-23T12:12:52;25.90;69.30
43671;DHT22;29267;50.906;7.248;2022-07-23T12:15:41;25.80;70.30
43671;DHT22;29267;50.906;7.248;2022-07-23T12:18:09;26.00;68.40
43671;DHT22;29267;50.906;7.248;2022-07-23T12:20:40;26.20;66.90
43671;DHT22;29267;50.906;7.248;2022-07-23T12:23:09;26.10;69.30
43671;DHT22;29267;50.906;7.248;2022-07-23T12:25:38;26.10;68.00
43671;DHT22;29267;50.906;7.248;2022-07-23T12:28:14;26.20;69.00
43671;DHT22;29267;50.906;7.248;2022-07-23T12:30:46;26.40;67.80
43671;DHT22;29267;50.906;7.248;2022-07-23T12:33:14;26.40;67.60
43671;DHT22;29267;50.906;7.248;2022-07-23T12:35:45;26.40;68.00
43671;DHT22;29267;50.906;7.248;2022-07-23T12:38:15;26.30;68.70
43671;DHT22;29267;50.906;7.248;2022-07-23T12:43:08;26.20;66.00
43671;DHT22;29267;50.906;7.248;2022-07-23T12:48:23;26.30;65.70
43671;DHT22;29267;50.906;7.248;2022-07-23T12:50:54;26.20;66.70
43671;DHT22;29267;50.906;7.248;2022-07-23T12:55:50;25.90;69.00
43671;DHT22;29267;50.906;7.248;2022-07-23T12:58:19;26.10;69.40
43671;DHT22;29267;50.906;7.248;2022-07-23T13:01:04;26.20;68.40
43671;DHT22;29267;50.906;7.248;2022-07-23T13:06:02;26.10;69.00
43671;DHT22;29267;50.906;7.248;2022-07-23T13:08:30;25.90;68.00
43671;DHT22;29267;50.906;7.248;2022-07-23T13:10:56;26.10;69.00
43671;DHT22;29267;50.906;7.248;2022-07-23T13:13:24;25.90;67.60
43671;DHT22;29267;50.906;7.248;2022-07-23T13:15:51;25.90;69.50
43671;DHT22;29267;50.906;7.248;2022-07-23T13:18:17;25.70;68.10
43671;DHT22;29267;50.906;7.248;2022-07-23T13:20:44;25.80;70.90
43671;DHT22;29267;50.906;7.248;2022-07-23T13:23:10;25.90;70.90
43671;DHT22;29267;50.906;7.248;2022-07-23T13:25:36;26.00;71.40
43671;DHT22;29267;50.906;7.248;2022-07-23T13:28:02;26.00;70.10
43671;DHT22;29267;50.906;7.248;2022-07-23T13:30:27;26.00;71.10
43671;DHT22;29267;50.906;7.248;2022-07-23T13:32:53;26.00;68.30
43671;DHT22;29267;50.906;7.248;2022-07-23T13:35:19;26.00;70.20
43671;DHT22;29267;50.906;7.248;2022-07-23T13:37:44;25.90;68.70
43671;DHT22;29267;50.906;7.248;2022-07-23T13:40:10;25.50;71.70
43671;DHT22;29267;50.906;7.248;2022-07-23T13:42:37;25.50;70.90
43671;DHT22;29267;50.906;7.248;2022-07-23T13:45:04;25.50;71.50
43671;DHT22;29267;50.906;7.248;2022-07-23T13:47:30;25.60;69.90
43671;DHT22;29267;50.906;7.248;2022-07-23T13:49:56;25.60;69.70
43671;DHT22;29267;50.906;7.248;2022-07-23T13:52:22;25.70;70.30
43671;DHT22;29267;50.906;7.248;2022-07-23T13:54:47;25.70;69.90
43671;DHT22;29267;50.906;7.248;2022-07-23T13:57:13;25.70;69.30
43671;DHT22;29267;50.906;7.248;2022-07-23T13:59:39;25.80;69.90
43671;DHT22;29267;50.906;7.248;2022-07-23T14:02:05;26.00;70.50
43671;DHT22;29267;50.906;7.248;2022-07-23T14:04:31;26.10;69.90
43671;DHT22;29267;50.906;7.248;2022-07-23T14:06:57;26.10;69.90
43671;DHT22;29267;50.906;7.248;2022-07-23T14:09:23;26.20;70.00
43671;DHT22;29267;50.906;7.248;2022-07-23T14:11:49;26.30;68.80
43671;DHT22;29267;50.906;7.248;2022-07-23T14:14:16;26.40;69.00
43671;DHT22;29267;50.906;7.248;2022-07-23T14:16:42;26.20;70.60
43671;DHT22;29267;50.906;7.248;2022-07-23T14:19:08;26.10;67.70
43671;DHT22;29267;50.906;7.248;2022-07-23T14:21:34;25.90;68.40
43671;DHT22;29267;50.906;7.248;2022-07-23T14:24:00;25.80;69.40
43671;DHT22;29267;50.906;7.248;2022-07-23T14:26:25;25.80;70.10
43671;DHT22;29267;50.906;7.248;2022-07-23T14:28:51;25.80;69.90
43671;DHT22;29267;50.906;7.248;2022-07-23T14:31:17;25.90;69.10
43671;DHT22;29267;50.906;7.248;2022-07-23T14:33:42;25.90;67.70
43671;DHT22;29267;50.906;7.248;2022-07-23T14:36:08;25.90;68.30
43671;DHT22;29267;50.906;7.248;2022-07-23T14:38:33;25.90;69.00
43671;DHT22;29267;50.906;7.248;2022-07-23T14:40:59;26.00;69.20
43671;DHT22;29267;50.906;7.248;2022-07-23T14:43:25;26.10;70.00
43671;DHT22;29267;50.906;7.248;2022-07-23T14:45:50;26.10;69.10
43671;DHT22;29267;50.906;7.248;2022-07-23T14:48:16;26.10;69.50
43671;DHT22;29267;50.906;7.248;2022-07-23T14:50:41;26.00;68.00
43671;DHT22;29267;50.906;7.248;2022-07-23T14:53:07;25.90;69.30
43671;DHT22;29267;50.906;7.248;2022-07-23T14:55:33;25.80;69.20
43671;DHT22;29267;50.906;7.248;2022-07-23T14:57:59;25.70;70.20
43671;DHT22;29267;50.906;7.248;2022-07-23T15:00:25;25.50;70.40
43671;DHT22;29267;50.906;7.248;2022-07-23T15:02:52;25.50;70.40
43671;DHT22;29267;50.906;7.248;2022-07-23T15:05:18;25.50;70.80
43671;DHT22;29267;50.906;7.248;2022-07-23T15:07:44;25.40;70.20
43671;DHT22;29267;50.906;7.248;2022-07-23T15:10:10;25.40;70.30
43671;DHT22;29267;50.906;7.248;2022-07-23T15:12:35;25.40;71.70
43671;DHT22;29267;50.906;7.248;2022-07-23T15:15:01;25.40;70.50
43671;DHT22;29267;50.906;7.248;2022-07-23T15:17:27;25.40;71.80
43671;DHT22;29267;50.906;7.248;2022-07-23T15:19:52;25.30;71.20
43671;DHT22;29267;50.906;7.248;2022-07-23T15:22:18;25.40;70.80
43671;DHT22;29267;50.906;7.248;2022-07-23T15:24:44;25.50;70.90
43671;DHT22;29267;50.906;7.248;2022-07-23T15:27:09;25.50;71.40
43671;DHT22;29267;50.906;7.248;2022-07-23T15:29:35;25.60;72.40
43671;DHT22;29267;50.906;7.248;2022-07-23T15:32:01;25.60;70.70
43671;DHT22;29267;50.906;7.248;2022-07-23T15:34:28;25.60;72.00
43671;DHT22;29267;50.906;7.248;2022-07-23T15:36:54;25.60;71.50
43671;DHT22;29267;50.906;7.248;2022-07-23T15:39:20;25.50;71.50
43671;DHT22;29267;50.906;7.248;2022-07-23T15:41:45;25.40;73.10
43671;DHT22;29267;50.906;7.248;2022-07-23T15:44:11;25.30;73.40
43671;DHT22;29267;50.906;7.248;2022-07-23T15:46:37;25.30;72.00
43671;DHT22;29267;50.906;7.248;2022-07-23T15:49:02;25.30;72.20
43671;DHT22;29267;50.906;7.248;2022-07-23T15:51:28;25.20;70.90
43671;DHT22;29267;50.906;7.248;2022-07-23T15:53:55;25.10;71.80
43671;DHT22;29267;50.906;7.248;2022-07-23T15:56:20;25.00;72.60
43671;DHT22;29267;50.906;7.248;2022-07-23T15:58:46;25.00;72.40
43671;DHT22;29267;50.906;7.248;2022-07-23T16:01:12;24.90;72.40
43671;DHT22;29267;50.906;7.248;2022-07-23T16:03:38;25.00;71.90
43671;DHT22;29267;50.906;7.248;2022-07-23T16:06:05;24.90;72.70
43671;DHT22;29267;50.906;7.248;2022-07-23T16:08:31;24.80;73.30
43671;DHT22;29267;50.906;7.248;2022-07-23T16:10:57;24.90;70.90
43671;DHT22;29267;50.906;7.248;2022-07-23T16:13:24;24.90;71.50